NCAR-RAP Real-Time Weather Data

Output produced by METARs form (08 May 2021  02:07 UTC)
found at http://weather.rap.ucar.edu/surface/
 
KINL 080154Z AUTO 30004KT 10SM FEW090 07/M05 A3007 RMK AO2 SLP196 T00671050
KINL 080054Z AUTO 32008KT 10SM CLR 09/M05 A3007 RMK AO2 SLP194 T00891050
KINL 072354Z AUTO 36005KT 10SM CLR 11/M05 A3007 RMK AO2 SLP195 T01111050 10133 20094 58011
KINL 072254Z AUTO 36013G18KT 10SM SCT075 13/M05 A3008 RMK AO2 SLP201 T01281050
KINL 072154Z AUTO 36005KT 10SM BKN070 12/M04 A3009 RMK AO2 SLP204 T01171044
KINL 072054Z AUTO 32008G17KT 10SM BKN070 12/M04 A3011 RMK AO2 SLP207 T01221044 56012
KINL 071954Z AUTO 35006KT 10SM BKN060 12/M04 A3011 RMK AO2 SLP208 T01171044
KINL 071854Z AUTO 33008KT 10SM SCT060 11/M04 A3012 RMK AO2 SLP212 T01061044
KINL 071754Z AUTO 33006KT 10SM FEW049 SCT060 09/M04 A3014 RMK AO2 SLP218 T00941039 10100 20006 58007
KINL 071654Z AUTO VRB03KT 10SM BKN045 08/M03 A3015 RMK AO2 SLP222 T00831033
KINL 071554Z AUTO 34012G16KT 10SM FEW039 BKN048 07/M03 A3016 RMK AO2 SLP226 T00671033
KINL 071454Z AUTO 33009KT 10SM BKN034 OVC043 05/M03 A3016 RMK AO2 SLP226 T00501033 51007
KINL 071354Z AUTO 33011KT 10SM OVC041 04/M03 A3016 RMK AO2 SLP226 T00391028
KINL 071254Z AUTO 31006KT 10SM OVC044 03/M02 A3015 RMK AO2 SLP223 T00281022
KINL 071154Z AUTO 33005KT 10SM OVC046 01/M03 A3014 RMK AO2 SLP219 T00061028 10039 21033 53009